JBU1691 KRDU-KFLL
Flight info
| Callsign | JBU1691 |
|---|---|
| Flight time | 1h 31m |
| Altitude | 36000 |
| Route | ROZBO5 ROZBO GARIC JRDAN Y291 MAJIK CUUDA3 |
| Aircraft | A320/M-SDE3FGHIRWY/LB1 |
Departure
| Time | 2026-05-07 02:06 |
|---|---|
| Airport | Raleigh-Durham International Airport (KRDU) |
Arrival
| Time | 2026-05-07 03:38 |
|---|---|
| Airport | Fort Lauderdale Hollywood International Airport (KFLL) |
| Time | Latitude | Longitude | Altitude | Speed | Heading |
|---|---|---|---|---|---|
| 2026-05-07 01:26 | 35.87954 | -78.79170 | 392 ft | 0 kts | 143° |
| 2026-05-07 01:36 | 35.87954 | -78.79171 | 392 ft | 0 kts | 143° |
| 2026-05-07 01:47 | 35.87960 | -78.79176 | 392 ft | 2 kts | 143° |
| 2026-05-07 01:47 | 35.87972 | -78.79191 | 392 ft | 2 kts | 131° |
| 2026-05-07 01:47 | 35.87979 | -78.79209 | 392 ft | 2 kts | 63° |
| 2026-05-07 01:47 | 35.87976 | -78.79216 | 392 ft | 0 kts | 45° |
| 2026-05-07 01:52 | 35.87986 | -78.79204 | 392 ft | 7 kts | 43° |
| 2026-05-07 01:52 | 35.88031 | -78.79162 | 392 ft | 9 kts | 36° |
| 2026-05-07 01:52 | 35.88085 | -78.79112 | 392 ft | 11 kts | 39° |
| 2026-05-07 01:52 | 35.88138 | -78.79050 | 391 ft | 11 kts | 44° |
| 2026-05-07 01:53 | 35.88155 | -78.79029 | 391 ft | 0 kts | 44° |
| 2026-05-07 01:53 | 35.88185 | -78.79012 | 391 ft | 14 kts | 12° |
| 2026-05-07 01:53 | 35.88281 | -78.78966 | 391 ft | 16 kts | 30° |
| 2026-05-07 01:53 | 35.88358 | -78.78886 | 391 ft | 0 kts | 44° |
| 2026-05-07 01:54 | 35.88363 | -78.78879 | 391 ft | 6 kts | 45° |
| 2026-05-07 01:54 | 35.88422 | -78.78798 | 391 ft | 17 kts | 49° |
| 2026-05-07 01:54 | 35.88463 | -78.78750 | 391 ft | 0 kts | 43° |
| 2026-05-07 01:57 | 35.88469 | -78.78743 | 391 ft | 6 kts | 43° |
| 2026-05-07 01:57 | 35.88501 | -78.78656 | 392 ft | 4 kts | 81° |
| 2026-05-07 01:57 | 35.88501 | -78.78655 | 392 ft | 0 kts | 81° |
| 2026-05-07 01:58 | 35.88496 | -78.78640 | 392 ft | 4 kts | 135° |
| 2026-05-07 01:59 | 35.88462 | -78.78651 | 392 ft | 7 kts | 211° |
| 2026-05-07 01:59 | 35.88389 | -78.78736 | 391 ft | 21 kts | 226° |
| 2026-05-07 01:59 | 35.88293 | -78.78852 | 391 ft | 14 kts | 224° |
| 2026-05-07 01:59 | 35.88274 | -78.78874 | 391 ft | 0 kts | 224° |
| 2026-05-07 02:00 | 35.88263 | -78.78887 | 391 ft | 8 kts | 224° |
| 2026-05-07 02:00 | 35.88195 | -78.78964 | 391 ft | 15 kts | 214° |
| 2026-05-07 02:00 | 35.88099 | -78.78952 | 394 ft | 12 kts | 141° |
| 2026-05-07 02:00 | 35.88054 | -78.78901 | 405 ft | 7 kts | 135° |
| 2026-05-07 02:01 | 35.87993 | -78.78828 | 410 ft | 18 kts | 137° |
| 2026-05-07 02:01 | 35.87894 | -78.78762 | 420 ft | 14 kts | 159° |
| 2026-05-07 02:01 | 35.87817 | -78.78715 | 426 ft | 11 kts | 143° |
| 2026-05-07 02:01 | 35.87754 | -78.78644 | 426 ft | 19 kts | 135° |
| 2026-05-07 02:02 | 35.87697 | -78.78573 | 435 ft | 0 kts | 134° |
| 2026-05-07 02:02 | 35.87668 | -78.78538 | 426 ft | 11 kts | 135° |
| 2026-05-07 02:02 | 35.87694 | -78.78412 | 432 ft | 23 kts | 50° |
| 2026-05-07 02:03 | 35.87813 | -78.78260 | 430 ft | 26 kts | 45° |
| 2026-05-07 02:03 | 35.87941 | -78.78101 | 425 ft | 23 kts | 45° |
| 2026-05-07 02:03 | 35.87965 | -78.78042 | 431 ft | 0 kts | 88° |
| 2026-05-07 02:04 | 35.87965 | -78.78041 | 431 ft | 1 kts | 88° |
| 2026-05-07 02:04 | 35.87932 | -78.77977 | 433 ft | 16 kts | 153° |
| 2026-05-07 02:05 | 35.87853 | -78.78017 | 428 ft | 0 kts | 223° |
| 2026-05-07 02:05 | 35.87790 | -78.78093 | 431 ft | 44 kts | 225° |
| 2026-05-07 02:06 | 35.87410 | -78.78553 | 423 ft | 106 kts | 224° |
| 2026-05-07 02:06 | 35.86763 | -78.79336 | 513 ft | 145 kts | 224° |
| 2026-05-07 02:06 | 35.86039 | -78.80211 | 1088 ft | 146 kts | 211° |
| 2026-05-07 02:06 | 35.85148 | -78.80777 | 1776 ft | 144 kts | 201° |
| 2026-05-07 02:07 | 35.84157 | -78.81290 | 2082 ft | 166 kts | 201° |
| 2026-05-07 02:07 | 35.81689 | -78.82447 | 2731 ft | 214 kts | 201° |
| 2026-05-07 02:07 | 35.80213 | -78.83093 | 3261 ft | 233 kts | 200° |
| 2026-05-07 02:08 | 35.78583 | -78.83466 | 4036 ft | 247 kts | 179° |
| 2026-05-07 02:08 | 35.76884 | -78.82921 | 4853 ft | 260 kts | 163° |
| 2026-05-07 02:08 | 35.75181 | -78.82112 | 5760 ft | 264 kts | 162° |
| 2026-05-07 02:08 | 35.73468 | -78.81276 | 6650 ft | 267 kts | 162° |
| 2026-05-07 02:09 | 35.71733 | -78.80426 | 7500 ft | 270 kts | 162° |
| 2026-05-07 02:09 | 35.69975 | -78.79565 | 8317 ft | 275 kts | 162° |
| 2026-05-07 02:09 | 35.68177 | -78.78692 | 9097 ft | 281 kts | 162° |
| 2026-05-07 02:09 | 35.66335 | -78.77802 | 9879 ft | 287 kts | 162° |
| 2026-05-07 02:10 | 35.64442 | -78.76890 | 10389 ft | 302 kts | 162° |
| 2026-05-07 02:10 | 35.62407 | -78.75921 | 10624 ft | 325 kts | 162° |
| 2026-05-07 02:10 | 35.60218 | -78.74883 | 10832 ft | 348 kts | 162° |
| 2026-05-07 02:10 | 35.57918 | -78.73785 | 11300 ft | 360 kts | 162° |
| 2026-05-07 02:11 | 35.55556 | -78.72649 | 11877 ft | 367 kts | 162° |
| 2026-05-07 02:11 | 35.53169 | -78.71499 | 12080 ft | 370 kts | 162° |
| 2026-05-07 02:11 | 35.50714 | -78.70609 | 12143 ft | 366 kts | 172° |
| 2026-05-07 02:11 | 35.48204 | -78.70190 | 12145 ft | 365 kts | 176° |
| 2026-05-07 02:12 | 35.45666 | -78.69826 | 12425 ft | 368 kts | 176° |
| 2026-05-07 02:12 | 35.43110 | -78.69464 | 13199 ft | 372 kts | 177° |
| 2026-05-07 02:12 | 35.40527 | -78.69099 | 13889 ft | 377 kts | 177° |
| 2026-05-07 02:12 | 35.37898 | -78.68727 | 14478 ft | 383 kts | 177° |
| 2026-05-07 02:13 | 35.35238 | -78.68349 | 15126 ft | 386 kts | 177° |
| 2026-05-07 02:13 | 35.32563 | -78.67967 | 15759 ft | 390 kts | 176° |
| 2026-05-07 02:13 | 35.29856 | -78.67578 | 16371 ft | 393 kts | 176° |
| 2026-05-07 02:13 | 35.27126 | -78.67184 | 16979 ft | 397 kts | 176° |
| 2026-05-07 02:14 | 35.24404 | -78.66794 | 17578 ft | 401 kts | 176° |
| 2026-05-07 02:14 | 35.21614 | -78.66396 | 18175 ft | 405 kts | 176° |
| 2026-05-07 02:14 | 35.18799 | -78.65997 | 18726 ft | 410 kts | 176° |
| 2026-05-07 02:14 | 35.15916 | -78.65589 | 19278 ft | 414 kts | 177° |
| 2026-05-07 02:15 | 35.13036 | -78.65182 | 19843 ft | 419 kts | 177° |
| 2026-05-07 02:15 | 35.10164 | -78.64775 | 20414 ft | 423 kts | 177° |
| 2026-05-07 02:15 | 35.07220 | -78.64354 | 20975 ft | 428 kts | 178° |
| 2026-05-07 02:15 | 35.04259 | -78.63931 | 21510 ft | 432 kts | 178° |
| 2026-05-07 02:16 | 35.01256 | -78.63503 | 22043 ft | 436 kts | 178° |
| 2026-05-07 02:16 | 34.98223 | -78.63049 | 22552 ft | 442 kts | 175° |
| 2026-05-07 02:16 | 34.95207 | -78.62166 | 23033 ft | 452 kts | 166° |
| 2026-05-07 02:16 | 34.92281 | -78.60682 | 23526 ft | 460 kts | 157° |
| 2026-05-07 02:17 | 34.89406 | -78.58930 | 23957 ft | 464 kts | 157° |
| 2026-05-07 02:17 | 34.86507 | -78.57166 | 24363 ft | 468 kts | 157° |
| 2026-05-07 02:17 | 34.83585 | -78.55394 | 24774 ft | 471 kts | 158° |
| 2026-05-07 02:17 | 34.80632 | -78.53611 | 25181 ft | 474 kts | 158° |
| 2026-05-07 02:18 | 34.77665 | -78.51826 | 25586 ft | 478 kts | 158° |
| 2026-05-07 02:18 | 34.74673 | -78.50025 | 25987 ft | 481 kts | 158° |
| 2026-05-07 02:18 | 34.71674 | -78.48217 | 26383 ft | 484 kts | 158° |
| 2026-05-07 02:18 | 34.68636 | -78.46382 | 26736 ft | 488 kts | 157° |
| 2026-05-07 02:19 | 34.65586 | -78.44544 | 27106 ft | 491 kts | 157° |
| 2026-05-07 02:19 | 34.62516 | -78.42698 | 27467 ft | 495 kts | 158° |
| 2026-05-07 02:19 | 34.59417 | -78.40842 | 27824 ft | 498 kts | 158° |
| 2026-05-07 02:19 | 34.56305 | -78.38982 | 28179 ft | 501 kts | 158° |
| 2026-05-07 02:20 | 34.53212 | -78.37132 | 28518 ft | 504 kts | 158° |
| 2026-05-07 02:20 | 34.50031 | -78.35226 | 28956 ft | 504 kts | 158° |
| 2026-05-07 02:20 | 34.46931 | -78.33369 | 29440 ft | 503 kts | 158° |
| 2026-05-07 02:20 | 34.43788 | -78.31485 | 29904 ft | 503 kts | 158° |
| 2026-05-07 02:21 | 34.40652 | -78.29607 | 30319 ft | 504 kts | 158° |
| 2026-05-07 02:21 | 34.37500 | -78.27725 | 30686 ft | 505 kts | 158° |
| 2026-05-07 02:21 | 34.34346 | -78.25842 | 31029 ft | 507 kts | 157° |
| 2026-05-07 02:21 | 34.31178 | -78.23953 | 31370 ft | 509 kts | 157° |
| 2026-05-07 02:22 | 34.27992 | -78.22054 | 31712 ft | 510 kts | 157° |
| 2026-05-07 02:22 | 34.24801 | -78.20152 | 32053 ft | 512 kts | 157° |
| 2026-05-07 02:22 | 34.21607 | -78.18254 | 32389 ft | 514 kts | 157° |
| 2026-05-07 02:22 | 34.18389 | -78.16348 | 32745 ft | 515 kts | 157° |
| 2026-05-07 02:23 | 34.15167 | -78.14440 | 33051 ft | 517 kts | 157° |
| 2026-05-07 02:23 | 34.11930 | -78.12526 | 33405 ft | 518 kts | 157° |
| 2026-05-07 02:23 | 34.08693 | -78.10611 | 33760 ft | 520 kts | 157° |
| 2026-05-07 02:23 | 34.05442 | -78.08685 | 34117 ft | 521 kts | 157° |
| 2026-05-07 02:24 | 34.02180 | -78.06757 | 34443 ft | 522 kts | 157° |
| 2026-05-07 02:24 | 33.98925 | -78.04833 | 34803 ft | 522 kts | 157° |
| 2026-05-07 02:24 | 33.95657 | -78.02897 | 35181 ft | 522 kts | 157° |
| 2026-05-07 02:24 | 33.92405 | -78.00974 | 35561 ft | 521 kts | 158° |
| 2026-05-07 02:25 | 33.89065 | -77.99347 | 35918 ft | 515 kts | 167° |
| 2026-05-07 02:25 | 33.85621 | -77.98287 | 36083 ft | 509 kts | 176° |
| 2026-05-07 02:25 | 33.78620 | -77.97614 | 36126 ft | 505 kts | 184° |
| 2026-05-07 02:26 | 33.71630 | -77.97218 | 36119 ft | 506 kts | 184° |
| 2026-05-07 02:26 | 33.64602 | -77.96784 | 36120 ft | 506 kts | 184° |
| 2026-05-07 02:27 | 33.57565 | -77.96331 | 36127 ft | 507 kts | 184° |
| 2026-05-07 02:27 | 33.50517 | -77.95896 | 36125 ft | 507 kts | 184° |
| 2026-05-07 02:28 | 33.43476 | -77.95488 | 36135 ft | 507 kts | 184° |
| 2026-05-07 02:28 | 33.36421 | -77.95073 | 36110 ft | 508 kts | 184° |
| 2026-05-07 02:29 | 33.29364 | -77.94637 | 36121 ft | 508 kts | 184° |
| 2026-05-07 02:29 | 33.22307 | -77.94211 | 36126 ft | 508 kts | 184° |
| 2026-05-07 02:30 | 33.15248 | -77.93794 | 36127 ft | 508 kts | 184° |
| 2026-05-07 02:30 | 33.08181 | -77.93392 | 36111 ft | 507 kts | 186° |
| 2026-05-07 02:31 | 33.01304 | -77.94250 | 36116 ft | 489 kts | 202° |
| 2026-05-07 02:31 | 32.94797 | -77.96465 | 36103 ft | 486 kts | 204° |
| 2026-05-07 02:32 | 32.88292 | -77.98686 | 36123 ft | 486 kts | 204° |
| 2026-05-07 02:32 | 32.81789 | -78.00894 | 36136 ft | 486 kts | 204° |
| 2026-05-07 02:33 | 32.75295 | -78.03104 | 36139 ft | 486 kts | 204° |
| 2026-05-07 02:33 | 32.68797 | -78.05323 | 36138 ft | 486 kts | 204° |
| 2026-05-07 02:34 | 32.62353 | -78.07522 | 36140 ft | 486 kts | 204° |
| 2026-05-07 02:34 | 32.55854 | -78.09732 | 36122 ft | 486 kts | 204° |
| 2026-05-07 02:35 | 32.49360 | -78.11932 | 36125 ft | 486 kts | 204° |
| 2026-05-07 02:35 | 32.42856 | -78.14133 | 36131 ft | 486 kts | 204° |
| 2026-05-07 02:36 | 32.36349 | -78.16317 | 36134 ft | 486 kts | 204° |
| 2026-05-07 02:36 | 32.30935 | -78.18134 | 36110 ft | 486 kts | 204° |
| 2026-05-07 02:37 | 32.24432 | -78.20329 | 36120 ft | 486 kts | 204° |
| 2026-05-07 02:37 | 32.17930 | -78.22525 | 36130 ft | 486 kts | 204° |
| 2026-05-07 02:38 | 32.11411 | -78.24713 | 36133 ft | 487 kts | 204° |
| 2026-05-07 02:38 | 32.04893 | -78.26883 | 36099 ft | 487 kts | 204° |
| 2026-05-07 02:39 | 31.98368 | -78.29069 | 36108 ft | 487 kts | 204° |
| 2026-05-07 02:39 | 31.91842 | -78.31255 | 36117 ft | 488 kts | 204° |
| 2026-05-07 02:40 | 31.85323 | -78.33438 | 36123 ft | 488 kts | 204° |
| 2026-05-07 02:40 | 31.78790 | -78.35619 | 36108 ft | 488 kts | 205° |
| 2026-05-07 02:41 | 31.72287 | -78.37779 | 36116 ft | 489 kts | 204° |
| 2026-05-07 02:41 | 31.65744 | -78.39952 | 36118 ft | 489 kts | 204° |
| 2026-05-07 02:42 | 31.59192 | -78.42125 | 36133 ft | 489 kts | 204° |
| 2026-05-07 02:42 | 31.52651 | -78.44302 | 36100 ft | 489 kts | 205° |
| 2026-05-07 02:43 | 31.46082 | -78.46453 | 36109 ft | 491 kts | 204° |
| 2026-05-07 02:43 | 31.39495 | -78.48581 | 36118 ft | 491 kts | 204° |
| 2026-05-07 02:44 | 31.32901 | -78.50710 | 36124 ft | 492 kts | 204° |
| 2026-05-07 02:44 | 31.26316 | -78.52839 | 36099 ft | 492 kts | 204° |
| 2026-05-07 02:45 | 31.19715 | -78.54980 | 36108 ft | 492 kts | 204° |
| 2026-05-07 02:45 | 31.13107 | -78.57117 | 36112 ft | 493 kts | 204° |
| 2026-05-07 02:46 | 31.06488 | -78.59240 | 36120 ft | 493 kts | 204° |
| 2026-05-07 02:46 | 30.99874 | -78.61354 | 36099 ft | 494 kts | 204° |
| 2026-05-07 02:47 | 30.93241 | -78.63481 | 36107 ft | 494 kts | 204° |
| 2026-05-07 02:47 | 30.86619 | -78.65619 | 36115 ft | 494 kts | 204° |
| 2026-05-07 02:48 | 30.79976 | -78.67748 | 36121 ft | 495 kts | 204° |
| 2026-05-07 02:48 | 30.73380 | -78.69851 | 36086 ft | 495 kts | 205° |
| 2026-05-07 02:49 | 30.66691 | -78.71991 | 36119 ft | 496 kts | 205° |
| 2026-05-07 02:49 | 30.60068 | -78.74109 | 36127 ft | 496 kts | 205° |
| 2026-05-07 02:50 | 30.53409 | -78.76229 | 36131 ft | 496 kts | 205° |
| 2026-05-07 02:50 | 30.46747 | -78.78346 | 36107 ft | 496 kts | 205° |
| 2026-05-07 02:51 | 30.40091 | -78.80461 | 36114 ft | 496 kts | 205° |
| 2026-05-07 02:51 | 30.33426 | -78.82575 | 36123 ft | 497 kts | 205° |
| 2026-05-07 02:52 | 30.26755 | -78.84686 | 36127 ft | 497 kts | 205° |
| 2026-05-07 02:52 | 30.20090 | -78.86795 | 36126 ft | 497 kts | 205° |
| 2026-05-07 02:53 | 30.13428 | -78.88904 | 36128 ft | 497 kts | 205° |
| 2026-05-07 02:53 | 30.06756 | -78.91006 | 36129 ft | 497 kts | 205° |
| 2026-05-07 02:54 | 30.00083 | -78.93113 | 36127 ft | 497 kts | 205° |
| 2026-05-07 02:54 | 29.93419 | -78.95211 | 36129 ft | 497 kts | 205° |
| 2026-05-07 02:55 | 29.86738 | -78.97308 | 36109 ft | 497 kts | 205° |
| 2026-05-07 02:55 | 29.80027 | -78.99312 | 36106 ft | 504 kts | 199° |
| 2026-05-07 02:56 | 29.73079 | -79.00610 | 36111 ft | 506 kts | 198° |
| 2026-05-07 02:56 | 29.66119 | -79.01889 | 36117 ft | 507 kts | 198° |
| 2026-05-07 02:57 | 29.59155 | -79.03169 | 36103 ft | 507 kts | 198° |
| 2026-05-07 02:57 | 29.52228 | -79.04444 | 36111 ft | 508 kts | 198° |
| 2026-05-07 02:58 | 29.45248 | -79.05729 | 36117 ft | 508 kts | 198° |
| 2026-05-07 02:58 | 29.38270 | -79.07015 | 36110 ft | 508 kts | 198° |
| 2026-05-07 02:59 | 29.31294 | -79.08304 | 36100 ft | 508 kts | 198° |
| 2026-05-07 02:59 | 29.24314 | -79.09590 | 36110 ft | 508 kts | 198° |
| 2026-05-07 03:00 | 29.17333 | -79.10862 | 36117 ft | 508 kts | 198° |
| 2026-05-07 03:00 | 29.10341 | -79.12136 | 36121 ft | 508 kts | 198° |
| 2026-05-07 03:01 | 29.03348 | -79.13409 | 36093 ft | 509 kts | 198° |
| 2026-05-07 03:01 | 28.96355 | -79.14677 | 36116 ft | 509 kts | 198° |
| 2026-05-07 03:02 | 28.89365 | -79.15952 | 36119 ft | 509 kts | 198° |
| 2026-05-07 03:02 | 28.82370 | -79.17234 | 36118 ft | 509 kts | 198° |
| 2026-05-07 03:03 | 28.75372 | -79.18504 | 36094 ft | 509 kts | 198° |
| 2026-05-07 03:03 | 28.68412 | -79.19764 | 36105 ft | 510 kts | 198° |
| 2026-05-07 03:04 | 28.61408 | -79.21028 | 36111 ft | 510 kts | 198° |
| 2026-05-07 03:04 | 28.54402 | -79.22296 | 36112 ft | 510 kts | 198° |
| 2026-05-07 03:05 | 28.47394 | -79.23557 | 36100 ft | 510 kts | 197° |
| 2026-05-07 03:05 | 28.40384 | -79.24814 | 36108 ft | 510 kts | 197° |
| 2026-05-07 03:06 | 28.33378 | -79.26096 | 36115 ft | 508 kts | 200° |
| 2026-05-07 03:06 | 28.26638 | -79.28152 | 36117 ft | 500 kts | 205° |
| 2026-05-07 03:07 | 28.19954 | -79.30328 | 36096 ft | 500 kts | 205° |
| 2026-05-07 03:07 | 28.13253 | -79.32495 | 36103 ft | 501 kts | 205° |
| 2026-05-07 03:08 | 28.06558 | -79.34661 | 36107 ft | 501 kts | 205° |
| 2026-05-07 03:08 | 27.99856 | -79.36833 | 35902 ft | 501 kts | 205° |
| 2026-05-07 03:09 | 27.96508 | -79.37916 | 35661 ft | 501 kts | 205° |
| 2026-05-07 03:09 | 27.93157 | -79.39001 | 35400 ft | 501 kts | 204° |
| 2026-05-07 03:09 | 27.89817 | -79.40080 | 35168 ft | 501 kts | 204° |
| 2026-05-07 03:09 | 27.86461 | -79.41165 | 34933 ft | 501 kts | 204° |
| 2026-05-07 03:10 | 27.83105 | -79.42248 | 34702 ft | 502 kts | 204° |
| 2026-05-07 03:10 | 27.79753 | -79.43328 | 34457 ft | 501 kts | 204° |
| 2026-05-07 03:10 | 27.76394 | -79.44412 | 33560 ft | 505 kts | 204° |
| 2026-05-07 03:10 | 27.72995 | -79.45508 | 32591 ft | 509 kts | 203° |
| 2026-05-07 03:11 | 27.69579 | -79.46605 | 31566 ft | 513 kts | 202° |
| 2026-05-07 03:11 | 27.66144 | -79.47705 | 30628 ft | 514 kts | 202° |
| 2026-05-07 03:11 | 27.62682 | -79.48811 | 29384 ft | 519 kts | 201° |
| 2026-05-07 03:11 | 27.59213 | -79.49921 | 28207 ft | 519 kts | 201° |
| 2026-05-07 03:12 | 27.55744 | -79.51031 | 27166 ft | 516 kts | 201° |
| 2026-05-07 03:12 | 27.52332 | -79.52120 | 26483 ft | 506 kts | 201° |
| 2026-05-07 03:12 | 27.48958 | -79.53197 | 25700 ft | 501 kts | 201° |
| 2026-05-07 03:12 | 27.45653 | -79.54251 | 25420 ft | 484 kts | 201° |
| 2026-05-07 03:13 | 27.42468 | -79.55261 | 25309 ft | 466 kts | 201° |
| 2026-05-07 03:13 | 27.39408 | -79.56229 | 25186 ft | 450 kts | 201° |
| 2026-05-07 03:13 | 27.36425 | -79.57171 | 24892 ft | 440 kts | 201° |
| 2026-05-07 03:13 | 27.33515 | -79.58091 | 24203 ft | 431 kts | 201° |
| 2026-05-07 03:14 | 27.30649 | -79.58999 | 23404 ft | 424 kts | 201° |
| 2026-05-07 03:14 | 27.27837 | -79.59888 | 22751 ft | 414 kts | 201° |
| 2026-05-07 03:14 | 27.22318 | -79.61629 | 21739 ft | 415 kts | 200° |
| 2026-05-07 03:15 | 27.19547 | -79.62504 | 21311 ft | 411 kts | 200° |
| 2026-05-07 03:15 | 27.16795 | -79.63376 | 20870 ft | 408 kts | 200° |
| 2026-05-07 03:15 | 27.14080 | -79.64244 | 20365 ft | 406 kts | 200° |
| 2026-05-07 03:15 | 27.11376 | -79.65113 | 19972 ft | 401 kts | 200° |
| 2026-05-07 03:16 | 27.08697 | -79.65974 | 19515 ft | 399 kts | 200° |
| 2026-05-07 03:16 | 27.06034 | -79.66827 | 19051 ft | 396 kts | 199° |
| 2026-05-07 03:16 | 27.03400 | -79.67670 | 18629 ft | 392 kts | 199° |
| 2026-05-07 03:16 | 27.00794 | -79.68502 | 18188 ft | 388 kts | 199° |
| 2026-05-07 03:17 | 26.98209 | -79.69326 | 17760 ft | 383 kts | 199° |
| 2026-05-07 03:17 | 26.95652 | -79.70142 | 17276 ft | 381 kts | 199° |
| 2026-05-07 03:17 | 26.93121 | -79.70952 | 16859 ft | 376 kts | 199° |
| 2026-05-07 03:17 | 26.90615 | -79.71752 | 16463 ft | 372 kts | 199° |
| 2026-05-07 03:18 | 26.88130 | -79.72543 | 16070 ft | 369 kts | 199° |
| 2026-05-07 03:18 | 26.85683 | -79.73322 | 15764 ft | 361 kts | 199° |
| 2026-05-07 03:18 | 26.83292 | -79.74084 | 15428 ft | 354 kts | 199° |
| 2026-05-07 03:18 | 26.80940 | -79.74832 | 14928 ft | 348 kts | 199° |
| 2026-05-07 03:19 | 26.78625 | -79.75567 | 14511 ft | 345 kts | 199° |
| 2026-05-07 03:19 | 26.76320 | -79.76298 | 14115 ft | 343 kts | 199° |
| 2026-05-07 03:19 | 26.74031 | -79.77022 | 13698 ft | 341 kts | 198° |
| 2026-05-07 03:19 | 26.71759 | -79.77736 | 13293 ft | 338 kts | 198° |
| 2026-05-07 03:20 | 26.69509 | -79.78454 | 12910 ft | 335 kts | 200° |
| 2026-05-07 03:20 | 26.67311 | -79.79265 | 12631 ft | 332 kts | 202° |
| 2026-05-07 03:20 | 26.65142 | -79.80150 | 12338 ft | 332 kts | 203° |
| 2026-05-07 03:20 | 26.62983 | -79.81068 | 12044 ft | 332 kts | 204° |
| 2026-05-07 03:21 | 26.60834 | -79.81985 | 11749 ft | 330 kts | 204° |
| 2026-05-07 03:21 | 26.58685 | -79.82890 | 11487 ft | 327 kts | 203° |
| 2026-05-07 03:21 | 26.56583 | -79.83760 | 11221 ft | 321 kts | 203° |
| 2026-05-07 03:21 | 26.54503 | -79.84626 | 10932 ft | 316 kts | 204° |
| 2026-05-07 03:22 | 26.52518 | -79.85524 | 10750 ft | 308 kts | 205° |
| 2026-05-07 03:22 | 26.50532 | -79.86464 | 10310 ft | 305 kts | 207° |
| 2026-05-07 03:22 | 26.48596 | -79.87397 | 9879 ft | 301 kts | 207° |
| 2026-05-07 03:22 | 26.46682 | -79.88318 | 9468 ft | 297 kts | 206° |
| 2026-05-07 03:23 | 26.44822 | -79.89208 | 9132 ft | 294 kts | 206° |
| 2026-05-07 03:23 | 26.42942 | -79.90098 | 8807 ft | 292 kts | 206° |
| 2026-05-07 03:23 | 26.41075 | -79.90975 | 8484 ft | 291 kts | 206° |
| 2026-05-07 03:23 | 26.39214 | -79.91849 | 8157 ft | 290 kts | 205° |
| 2026-05-07 03:24 | 26.37427 | -79.92845 | 7912 ft | 283 kts | 213° |
| 2026-05-07 03:24 | 26.35721 | -79.93956 | 7853 ft | 284 kts | 212° |
| 2026-05-07 03:24 | 26.34012 | -79.95054 | 7719 ft | 283 kts | 212° |
| 2026-05-07 03:24 | 26.32303 | -79.96145 | 7394 ft | 282 kts | 213° |
| 2026-05-07 03:25 | 26.30608 | -79.97226 | 7066 ft | 281 kts | 212° |
| 2026-05-07 03:25 | 26.28919 | -79.98306 | 6771 ft | 279 kts | 212° |
| 2026-05-07 03:25 | 26.27240 | -79.99384 | 6448 ft | 277 kts | 212° |
| 2026-05-07 03:25 | 26.25579 | -80.00450 | 6140 ft | 276 kts | 212° |
| 2026-05-07 03:26 | 26.24475 | -80.01158 | 5919 ft | 275 kts | 212° |
| 2026-05-07 03:26 | 26.22823 | -80.02217 | 5601 ft | 274 kts | 211° |
| 2026-05-07 03:26 | 26.21177 | -80.03275 | 5283 ft | 272 kts | 212° |
| 2026-05-07 03:26 | 26.19577 | -80.04385 | 4970 ft | 269 kts | 219° |
| 2026-05-07 03:27 | 26.18270 | -80.05852 | 4624 ft | 266 kts | 234° |
| 2026-05-07 03:27 | 26.17351 | -80.07627 | 4244 ft | 266 kts | 249° |
| 2026-05-07 03:27 | 26.16750 | -80.09571 | 4012 ft | 265 kts | 252° |
| 2026-05-07 03:27 | 26.16165 | -80.11524 | 3999 ft | 268 kts | 252° |
| 2026-05-07 03:28 | 26.15569 | -80.13496 | 4000 ft | 269 kts | 252° |
| 2026-05-07 03:28 | 26.15094 | -80.15505 | 3999 ft | 268 kts | 263° |
| 2026-05-07 03:28 | 26.15028 | -80.17578 | 4002 ft | 268 kts | 271° |
| 2026-05-07 03:28 | 26.15045 | -80.19656 | 4001 ft | 269 kts | 270° |
| 2026-05-07 03:29 | 26.15054 | -80.21732 | 4001 ft | 269 kts | 270° |
| 2026-05-07 03:29 | 26.15061 | -80.23815 | 4001 ft | 269 kts | 270° |
| 2026-05-07 03:29 | 26.15067 | -80.25893 | 4001 ft | 269 kts | 270° |
| 2026-05-07 03:29 | 26.15088 | -80.27969 | 3999 ft | 269 kts | 271° |
| 2026-05-07 03:30 | 26.15104 | -80.30049 | 3998 ft | 269 kts | 270° |
| 2026-05-07 03:30 | 26.15102 | -80.32125 | 3997 ft | 269 kts | 270° |
| 2026-05-07 03:30 | 26.15086 | -80.34209 | 3995 ft | 269 kts | 269° |
| 2026-05-07 03:30 | 26.15058 | -80.36282 | 3914 ft | 268 kts | 269° |
| 2026-05-07 03:31 | 26.15021 | -80.38356 | 3535 ft | 267 kts | 269° |
| 2026-05-07 03:31 | 26.14800 | -80.40362 | 3332 ft | 254 kts | 252° |
| 2026-05-07 03:31 | 26.14002 | -80.42030 | 3200 ft | 238 kts | 228° |
| 2026-05-07 03:31 | 26.12785 | -80.43159 | 3093 ft | 221 kts | 206° |
| 2026-05-07 03:32 | 26.11350 | -80.43704 | 2991 ft | 217 kts | 186° |
| 2026-05-07 03:32 | 26.09875 | -80.43662 | 2983 ft | 215 kts | 166° |
| 2026-05-07 03:32 | 26.08498 | -80.43066 | 2984 ft | 213 kts | 146° |
| 2026-05-07 03:32 | 26.07392 | -80.41986 | 2985 ft | 212 kts | 126° |
| 2026-05-07 03:33 | 26.06682 | -80.40561 | 2982 ft | 211 kts | 107° |
| 2026-05-07 03:33 | 26.06444 | -80.38979 | 2987 ft | 211 kts | 88° |
| 2026-05-07 03:33 | 26.06696 | -80.37366 | 2987 ft | 211 kts | 72° |
| 2026-05-07 03:33 | 26.07153 | -80.35814 | 2986 ft | 211 kts | 72° |
| 2026-05-07 03:34 | 26.07601 | -80.34261 | 2985 ft | 211 kts | 73° |
| 2026-05-07 03:34 | 26.07797 | -80.32648 | 2761 ft | 209 kts | 90° |
| 2026-05-07 03:34 | 26.07779 | -80.31040 | 2499 ft | 207 kts | 91° |
| 2026-05-07 03:34 | 26.07761 | -80.29449 | 2241 ft | 205 kts | 90° |
| 2026-05-07 03:35 | 26.07752 | -80.27874 | 1966 ft | 203 kts | 90° |
| 2026-05-07 03:35 | 26.07744 | -80.26343 | 1738 ft | 195 kts | 91° |
| 2026-05-07 03:35 | 26.07737 | -80.24896 | 1468 ft | 180 kts | 90° |
| 2026-05-07 03:35 | 26.07731 | -80.23592 | 1249 ft | 154 kts | 90° |
| 2026-05-07 03:36 | 26.07725 | -80.22465 | 1051 ft | 139 kts | 90° |
| 2026-05-07 03:36 | 26.07720 | -80.21411 | 882 ft | 134 kts | 90° |
| 2026-05-07 03:36 | 26.07714 | -80.20378 | 722 ft | 133 kts | 89° |
| 2026-05-07 03:36 | 26.07709 | -80.19347 | 561 ft | 133 kts | 90° |
| 2026-05-07 03:37 | 26.07704 | -80.18319 | 382 ft | 132 kts | 88° |
| 2026-05-07 03:37 | 26.07698 | -80.17300 | 207 ft | 133 kts | 89° |
| 2026-05-07 03:37 | 26.07692 | -80.16273 | 38 ft | 132 kts | 89° |
| 2026-05-07 03:37 | 26.07688 | -80.15418 | 16 ft | 75 kts | 90° |
| 2026-05-07 03:38 | 26.07688 | -80.15116 | 15 ft | 12 kts | 91° |
| 2026-05-07 03:38 | 26.07652 | -80.14971 | 17 ft | 30 kts | 121° |
| 2026-05-07 03:38 | 26.07562 | -80.14970 | 16 ft | 15 kts | 257° |
| 2026-05-07 03:38 | 26.07523 | -80.15063 | 16 ft | 15 kts | 168° |
| 2026-05-07 03:39 | 26.07486 | -80.14959 | 16 ft | 17 kts | 90° |
| 2026-05-07 03:39 | 26.07460 | -80.14836 | 16 ft | 17 kts | 146° |
| 2026-05-07 03:39 | 26.07372 | -80.14739 | 16 ft | 16 kts | 146° |
| 2026-05-07 03:39 | 26.07362 | -80.14732 | 16 ft | 0 kts | 147° |